Time;durP1;ratioP1;P1;durP2;ratioP2;P2;SDS_P1;SDS_P2;PMS_P1;PMS_P2;Temp;Humidity;BMP_temperature;BMP_pressure;BME280_temperature;BME280_humidity;BME280_pressure;Samples;Min_cycle;Max_cycle;Signal;HPM_P1;HPM_P2
2022/07/26 00:02:08;;;;;;;;;;;22.20;73.90;;;;;;5013265;28;945;-65
2022/07/26 00:04:34;;;;;;;;;;;22.10;73.90;;;;;;4995144;28;1910;-66
2022/07/26 00:06:59;;;;;;;;;;;22.20;73.90;;;;;;5012994;28;787;-66
2022/07/26 00:09:25;;;;;;;;;;;22.20;74.00;;;;;;5013055;28;1249;-66
2022/07/26 00:11:50;;;;;;;;;;;22.10;73.90;;;;;;4995651;28;1158;-65
2022/07/26 00:14:16;;;;;;;;;;;22.20;73.90;;;;;;4995220;28;1296;-66
2022/07/26 00:16:41;;;;;;;;;;;22.10;73.90;;;;;;5013046;28;876;-65
2022/07/26 00:19:07;;;;;;;;;;;22.20;74.00;;;;;;4995574;28;1124;-67
2022/07/26 00:21:33;;;;;;;;;;;22.20;74.00;;;;;;5006627;28;2040;-66
2022/07/26 00:23:59;;;;;;;;;;;22.20;74.00;;;;;;5012479;28;1277;-66
2022/07/26 00:26:24;;;;;;;;;;;22.10;73.90;;;;;;5009887;28;1902;-66
2022/07/26 00:28:50;;;;;;;;;;;22.20;74.00;;;;;;5021474;28;2202;-66
2022/07/26 00:31:15;;;;;;;;;;;22.20;74.00;;;;;;5013205;28;1080;-66
2022/07/26 00:33:41;;;;;;;;;;;22.10;73.90;;;;;;5007740;28;1895;-66
2022/07/26 00:36:06;;;;;;;;;;;22.10;73.90;;;;;;4991109;28;2018;-66
2022/07/26 00:38:32;;;;;;;;;;;22.20;74.00;;;;;;5004052;28;2068;-66
2022/07/26 00:40:57;;;;;;;;;;;22.20;74.00;;;;;;5005418;28;2143;-66
2022/07/26 00:43:22;;;;;;;;;;;22.20;74.00;;;;;;5004917;28;2235;-67
2022/07/26 00:45:49;;;;;;;;;;;22.20;74.00;;;;;;5011151;28;1977;-67
2022/07/26 00:48:15;;;;;;;;;;;22.10;73.90;;;;;;5010194;28;1904;-66
2022/07/26 00:50:40;;;;;;;;;;;22.20;74.00;;;;;;5020368;28;2275;-66
2022/07/26 00:53:06;;;;;;;;;;;22.20;74.00;;;;;;5027850;28;1044;-66
2022/07/26 00:55:31;;;;;;;;;;;22.20;74.00;;;;;;5004325;28;2185;-66
2022/07/26 00:57:59;;;;;;;;;;;22.20;74.00;;;;;;5012521;28;1163;-65
2022/07/26 01:00:26;;;;;;;;;;;22.20;74.00;;;;;;5013246;28;1083;-66
2022/07/26 01:02:52;;;;;;;;;;;22.20;74.70;;;;;;4998808;28;856;-66
2022/07/26 01:05:17;;;;;;;;;;;22.20;74.00;;;;;;4998081;28;1906;-66
2022/07/26 01:07:43;;;;;;;;;;;22.20;74.00;;;;;;5016272;28;849;-66
2022/07/26 01:10:11;;;;;;;;;;;22.10;73.90;;;;;;4998509;28;903;-66
2022/07/26 01:12:40;;;;;;;;;;;22.10;73.90;;;;;;4998781;28;699;-65
2022/07/26 01:15:05;;;;;;;;;;;22.10;73.90;;;;;;4998179;28;1223;-65
2022/07/26 01:17:31;;;;;;;;;;;22.20;74.00;;;;;;5016211;28;852;-66
2022/07/26 01:19:56;;;;;;;;;;;22.20;74.00;;;;;;5015605;28;1186;-66
2022/07/26 01:22:22;;;;;;;;;;;22.10;73.90;;;;;;5015844;28;924;-67
2022/07/26 01:24:47;;;;;;;;;;;22.20;74.00;;;;;;5008575;28;2296;-65
2022/07/26 01:27:13;;;;;;;;;;;22.10;73.90;;;;;;4998168;28;1092;-66
2022/07/26 01:29:38;;;;;;;;;;;22.10;73.90;;;;;;4997911;28;1050;-67
2022/07/26 01:32:04;;;;;;;;;;;22.20;74.00;;;;;;5010077;28;1858;-65
2022/07/26 01:34:29;;;;;;;;;;;22.20;74.00;;;;;;5025788;28;2047;-65
2022/07/26 01:36:55;;;;;;;;;;;22.10;74.00;;;;;;5010842;28;1317;-65
2022/07/26 01:39:21;;;;;;;;;;;22.20;74.00;;;;;;5015449;28;1131;-67
2022/07/26 01:41:46;;;;;;;;;;;22.20;74.00;;;;;;5015545;28;1204;-67
2022/07/26 01:44:12;;;;;;;;;;;22.20;74.00;;;;;;4997622;28;1065;-68
2022/07/26 01:46:37;;;;;;;;;;;22.10;73.90;;;;;;5007876;28;1898;-66
2022/07/26 01:49:03;;;;;;;;;;;22.20;74.00;;;;;;5010749;28;780;-66
2022/07/26 01:51:28;;;;;;;;;;;22.20;74.00;;;;;;5010896;28;1031;-65
2022/07/26 01:53:54;;;;;;;;;;;22.10;73.90;;;;;;4995468;28;816;-66
2022/07/26 01:56:19;;;;;;;;;;;22.20;74.00;;;;;;4995457;28;1185;-67
2022/07/26 01:58:44;;;;;;;;;;;22.20;74.00;;;;;;4995600;28;910;-65
2022/07/26 02:01:10;;;;;;;;;;;22.10;73.90;;;;;;4995361;28;800;-65
2022/07/26 02:03:35;;;;;;;;;;;22.20;74.00;;;;;;4995329;28;904;-66
2022/07/26 02:06:01;;;;;;;;;;;22.10;73.90;;;;;;4996475;28;2116;-66
2022/07/26 02:08:26;;;;;;;;;;;22.10;74.00;;;;;;5030113;28;1250;-62
2022/07/26 02:11:01;;;;;;;;;;;22.20;74.00;;;;;;5013247;28;1824;-65
2022/07/26 02:13:33;;;;;;;;;;;22.20;74.00;;;;;;5006914;28;2056;-64
2022/07/26 02:15:59;;;;;;;;;;;22.20;74.00;;;;;;5028659;28;1279;-66
2022/07/26 02:18:25;;;;;;;;;;;22.20;74.00;;;;;;5023157;28;2210;-66
2022/07/26 02:20:51;;;;;;;;;;;22.20;74.00;;;;;;5014190;28;1387;-66
2022/07/26 02:23:16;;;;;;;;;;;22.20;74.00;;;;;;4996821;28;1737;-66
2022/07/26 02:25:42;;;;;;;;;;;22.20;74.00;;;;;;5013773;28;1961;-66
2022/07/26 02:28:07;;;;;;;;;;;22.10;73.90;;;;;;4992053;28;2268;-66
2022/07/26 02:30:32;;;;;;;;;;;22.20;74.00;;;;;;5008358;28;1992;-66
2022/07/26 02:32:58;;;;;;;;;;;22.20;74.00;;;;;;5014699;28;1247;-66
2022/07/26 02:35:23;;;;;;;;;;;22.10;73.90;;;;;;4996932;28;1290;-67
2022/07/26 02:37:49;;;;;;;;;;;22.10;73.90;;;;;;5014550;28;838;-66
2022/07/26 02:40:14;;;;;;;;;;;22.20;74.00;;;;;;5014778;28;904;-66
2022/07/26 02:42:40;;;;;;;;;;;22.20;74.00;;;;;;5014240;28;946;-66
2022/07/26 02:45:05;;;;;;;;;;;22.20;74.00;;;;;;5013618;28;1953;-67
2022/07/26 02:47:31;;;;;;;;;;;22.20;74.00;;;;;;5014066;28;1066;-66
2022/07/26 02:49:57;;;;;;;;;;;22.20;74.00;;;;;;5014220;28;865;-66
2022/07/26 02:52:22;;;;;;;;;;;22.20;74.00;;;;;;5014241;28;982;-66
2022/07/26 02:54:48;;;;;;;;;;;22.20;74.00;;;;;;4996196;28;1346;-66
2022/07/26 02:57:13;;;;;;;;;;;22.20;74.00;;;;;;5014213;28;872;-67
2022/07/26 02:59:39;;;;;;;;;;;22.20;74.00;;;;;;5014230;28;911;-66
2022/07/26 03:02:04;;;;;;;;;;;22.10;73.90;;;;;;5014045;28;911;-66
2022/07/26 03:04:30;;;;;;;;;;;22.20;74.00;;;;;;4996033;28;1272;-66
2022/07/26 03:06:55;;;;;;;;;;;22.10;73.90;;;;;;5013975;28;1963;-66
2022/07/26 03:09:20;;;;;;;;;;;22.20;74.00;;;;;;5014013;28;1005;-67
2022/07/26 03:11:46;;;;;;;;;;;22.20;74.70;;;;;;5013836;28;1017;-68
2022/07/26 03:14:11;;;;;;;;;;;22.20;74.00;;;;;;5013524;28;1068;-66
2022/07/26 03:16:37;;;;;;;;;;;22.20;74.00;;;;;;5013470;28;1231;-66
2022/07/26 03:19:03;;;;;;;;;;;22.20;74.00;;;;;;4996125;28;1131;-66
2022/07/26 03:21:28;;;;;;;;;;;22.10;73.90;;;;;;4996028;28;847;-67
2022/07/26 03:23:54;;;;;;;;;;;22.20;74.00;;;;;;5013469;28;903;-66
2022/07/26 03:26:19;;;;;;;;;;;22.20;74.70;;;;;;5013336;28;1910;-66
2022/07/26 03:28:45;;;;;;;;;;;22.20;74.00;;;;;;5013566;28;801;-67
2022/07/26 03:31:11;;;;;;;;;;;22.20;74.00;;;;;;4995820;28;896;-66
2022/07/26 03:33:37;;;;;;;;;;;22.20;74.00;;;;;;5013464;28;820;-67
2022/07/26 03:36:03;;;;;;;;;;;22.20;74.00;;;;;;5013231;28;1181;-66
2022/07/26 03:38:28;;;;;;;;;;;22.20;74.00;;;;;;5013477;28;784;-66
2022/07/26 03:40:53;;;;;;;;;;;22.20;74.00;;;;;;5013475;28;931;-66
2022/07/26 03:43:19;;;;;;;;;;;22.10;73.90;;;;;;5013675;28;647;-66
2022/07/26 03:45:44;;;;;;;;;;;22.20;74.00;;;;;;5012742;28;1906;-66
2022/07/26 03:48:10;;;;;;;;;;;22.10;73.90;;;;;;5013329;28;975;-66
2022/07/26 03:50:35;;;;;;;;;;;22.20;74.00;;;;;;4995628;28;1123;-67
2022/07/26 03:53:01;;;;;;;;;;;22.10;73.90;;;;;;4995732;28;942;-66
2022/07/26 03:58:10;;;;;;;;;;;22.20;74.00;;;;;;5013071;28;655;-66
2022/07/26 04:00:35;;;;;;;;;;;22.20;74.00;;;;;;5013142;28;910;-66
2022/07/26 04:03:01;;;;;;;;;;;22.20;74.00;;;;;;4995649;28;1150;-66
2022/07/26 04:05:26;;;;;;;;;;;22.10;73.90;;;;;;5012763;28;1906;-66
2022/07/26 04:07:52;;;;;;;;;;;22.20;74.00;;;;;;4995725;28;797;-66
2022/07/26 04:10:17;;;;;;;;;;;22.20;74.00;;;;;;5012988;28;1005;-66
2022/07/26 04:12:43;;;;;;;;;;;22.20;74.00;;;;;;5012960;28;875;-67
2022/07/26 04:15:09;;;;;;;;;;;22.10;73.90;;;;;;5012678;28;1204;-67
2022/07/26 04:17:40;;;;;;;;;;;22.10;73.90;;;;;;5013079;28;827;-67
2022/07/26 04:20:06;;;;;;;;;;;22.20;74.00;;;;;;5013184;28;1187;-66
2022/07/26 04:22:33;;;;;;;;;;;22.20;74.00;;;;;;4995451;28;824;-66
2022/07/26 04:24:58;;;;;;;;;;;22.20;74.00;;;;;;4995126;28;1910;-66
2022/07/26 04:27:24;;;;;;;;;;;22.20;74.00;;;;;;5013301;28;1128;-66
2022/07/26 04:29:49;;;;;;;;;;;22.20;74.00;;;;;;5012939;28;857;-66
2022/07/26 04:32:15;;;;;;;;;;;22.20;74.00;;;;;;4995281;28;863;-66
2022/07/26 04:34:40;;;;;;;;;;;22.20;74.00;;;;;;5012652;28;1302;-66
2022/07/26 04:37:05;;;;;;;;;;;22.20;74.00;;;;;;4998791;28;844;-66
2022/07/26 04:39:31;;;;;;;;;;;22.20;74.00;;;;;;5016882;28;796;-66
2022/07/26 04:41:56;;;;;;;;;;;22.20;74.00;;;;;;5016406;28;792;-66
2022/07/26 04:44:22;;;;;;;;;;;22.10;73.90;;;;;;5016327;28;1312;-67
2022/07/26 04:46:47;;;;;;;;;;;22.10;73.90;;;;;;5016360;28;1891;-66
2022/07/26 04:49:13;;;;;;;;;;;22.20;74.10;;;;;;5016558;28;883;-66
2022/07/26 04:51:38;;;;;;;;;;;22.10;73.90;;;;;;4998844;28;911;-67
2022/07/26 04:54:03;;;;;;;;;;;22.20;74.00;;;;;;4998692;28;919;-65
2022/07/26 04:56:29;;;;;;;;;;;22.20;74.00;;;;;;5016199;28;1141;-67
2022/07/26 04:58:54;;;;;;;;;;;22.20;74.00;;;;;;5016292;28;1065;-66
2022/07/26 05:01:20;;;;;;;;;;;22.20;74.00;;;;;;5016341;28;796;-66
2022/07/26 05:03:45;;;;;;;;;;;22.20;74.10;;;;;;5016116;28;1073;-66
2022/07/26 05:06:11;;;;;;;;;;;22.10;74.00;;;;;;5015826;28;1910;-67
2022/07/26 05:08:36;;;;;;;;;;;22.20;74.10;;;;;;5016076;28;826;-67
2022/07/26 05:11:02;;;;;;;;;;;22.20;74.00;;;;;;4998343;28;1356;-66
2022/07/26 05:13:28;;;;;;;;;;;22.20;74.00;;;;;;5016001;28;849;-66
2022/07/26 05:15:53;;;;;;;;;;;22.20;74.00;;;;;;4998108;28;1292;-66
2022/07/26 05:18:19;;;;;;;;;;;22.20;74.00;;;;;;4998398;28;931;-66
2022/07/26 05:20:44;;;;;;;;;;;22.20;74.00;;;;;;5015805;28;1194;-66
2022/07/26 05:23:10;;;;;;;;;;;22.20;74.00;;;;;;4990703;28;1848;-65
2022/07/26 05:25:36;;;;;;;;;;;22.10;74.00;;;;;;5012992;28;2137;-65
2022/07/26 05:28:02;;;;;;;;;;;22.20;74.10;;;;;;5014494;28;1001;-65
2022/07/26 05:30:27;;;;;;;;;;;22.20;74.10;;;;;;5038974;28;1103;-67
2022/07/26 05:32:53;;;;;;;;;;;22.20;74.10;;;;;;5015422;28;1238;-68
2022/07/26 05:35:18;;;;;;;;;;;22.20;74.10;;;;;;5013916;28;1220;-67
2022/07/26 05:37:44;;;;;;;;;;;22.20;74.10;;;;;;5015562;28;859;-66
2022/07/26 05:40:10;;;;;;;;;;;22.20;74.80;;;;;;5014383;28;796;-66
2022/07/26 05:42:35;;;;;;;;;;;22.20;74.10;;;;;;5015681;28;819;-68
2022/07/26 05:45:01;;;;;;;;;;;22.20;74.10;;;;;;5013718;28;1898;-69
2022/07/26 05:47:26;;;;;;;;;;;22.20;74.00;;;;;;5014438;28;847;-68
2022/07/26 05:49:51;;;;;;;;;;;22.20;74.00;;;;;;5015502;28;863;-68
2022/07/26 05:52:17;;;;;;;;;;;22.20;74.00;;;;;;5015466;28;850;-69
2022/07/26 05:54:42;;;;;;;;;;;22.20;74.00;;;;;;5013663;28;1303;-68
2022/07/26 05:57:08;;;;;;;;;;;22.20;74.00;;;;;;5015084;28;1081;-68
2022/07/26 05:59:33;;;;;;;;;;;22.20;74.00;;;;;;5015218;28;841;-67
2022/07/26 06:01:59;;;;;;;;;;;22.20;74.00;;;;;;5015107;28;803;-67
2022/07/26 06:04:24;;;;;;;;;;;22.20;74.10;;;;;;5014820;28;1301;-67
2022/07/26 06:06:50;;;;;;;;;;;22.20;74.00;;;;;;5013955;28;1898;-66
2022/07/26 06:09:15;;;;;;;;;;;22.20;74.10;;;;;;4997694;28;1519;-67
2022/07/26 06:11:40;;;;;;;;;;;22.10;74.00;;;;;;5013493;28;804;-67
2022/07/26 06:14:06;;;;;;;;;;;22.20;74.00;;;;;;5014912;28;870;-67
2022/07/26 06:16:31;;;;;;;;;;;22.10;74.00;;;;;;5015025;28;1252;-69
2022/07/26 06:18:57;;;;;;;;;;;22.20;74.10;;;;;;5014893;28;1206;-68
2022/07/26 06:21:22;;;;;;;;;;;22.20;74.00;;;;;;4995532;28;2173;-66
2022/07/26 06:23:48;;;;;;;;;;;22.20;74.00;;;;;;5041103;28;1298;-66
2022/07/26 06:26:13;;;;;;;;;;;22.20;74.00;;;;;;5011887;28;1902;-67
2022/07/26 06:28:39;;;;;;;;;;;22.10;74.00;;;;;;5014665;28;1676;-67
2022/07/26 06:31:05;;;;;;;;;;;22.20;74.10;;;;;;4984512;28;1725;-67
2022/07/26 06:33:30;;;;;;;;;;;22.20;74.00;;;;;;5007459;28;1615;-67
2022/07/26 06:35:56;;;;;;;;;;;22.20;74.00;;;;;;5002425;28;1529;-67
2022/07/26 06:38:21;;;;;;;;;;;22.20;74.00;;;;;;4994526;28;1008;-66
2022/07/26 06:40:47;;;;;;;;;;;22.20;74.00;;;;;;4994382;28;859;-66
2022/07/26 06:43:12;;;;;;;;;;;22.20;74.00;;;;;;5006957;28;1448;-67
2022/07/26 06:45:38;;;;;;;;;;;22.20;74.10;;;;;;5004573;28;1953;-68
2022/07/26 06:48:03;;;;;;;;;;;22.20;74.10;;;;;;4994561;28;840;-67
2022/07/26 06:50:29;;;;;;;;;;;22.20;74.10;;;;;;4994379;28;1081;-67
2022/07/26 06:52:54;;;;;;;;;;;22.20;74.00;;;;;;4976776;28;874;-67
2022/07/26 06:55:19;;;;;;;;;;;22.20;74.10;;;;;;4993903;28;1197;-67
2022/07/26 06:57:45;;;;;;;;;;;22.20;74.00;;;;;;4994060;28;1050;-67
2022/07/26 07:00:11;;;;;;;;;;;22.20;74.10;;;;;;4976595;28;1278;-67
2022/07/26 07:02:36;;;;;;;;;;;22.10;74.00;;;;;;4976726;28;1022;-67
2022/07/26 07:05:02;;;;;;;;;;;22.20;74.00;;;;;;4976262;28;1898;-66
2022/07/26 07:07:27;;;;;;;;;;;22.20;74.00;;;;;;4976497;28;1332;-67
2022/07/26 07:09:53;;;;;;;;;;;22.20;74.00;;;;;;4993900;28;864;-67
2022/07/26 07:12:18;;;;;;;;;;;22.20;74.10;;;;;;4994091;28;844;-67
2022/07/26 07:14:44;;;;;;;;;;;22.20;74.10;;;;;;4993653;28;1288;-67
2022/07/26 07:17:09;;;;;;;;;;;22.20;74.10;;;;;;4993837;28;887;-67
2022/07/26 07:19:35;;;;;;;;;;;22.20;74.10;;;;;;5000938;28;1477;-67
2022/07/26 07:22:01;;;;;;;;;;;22.20;74.10;;;;;;4995853;28;808;-66
2022/07/26 07:24:26;;;;;;;;;;;22.10;74.00;;;;;;4979066;28;1420;-69
2022/07/26 07:26:52;;;;;;;;;;;22.20;74.10;;;;;;5013122;28;1955;-68
2022/07/26 07:29:19;;;;;;;;;;;22.20;74.10;;;;;;5013491;28;735;-69
2022/07/26 07:31:46;;;;;;;;;;;22.20;74.00;;;;;;4995500;28;1675;-68
2022/07/26 07:34:12;;;;;;;;;;;22.20;74.10;;;;;;5012915;28;863;-68
2022/07/26 07:36:37;;;;;;;;;;;22.20;74.00;;;;;;4995914;28;1213;-68
2022/07/26 07:39:03;;;;;;;;;;;22.20;74.10;;;;;;5013472;28;899;-68
2022/07/26 07:41:28;;;;;;;;;;;22.20;74.00;;;;;;5013680;28;886;-68
2022/07/26 07:43:54;;;;;;;;;;;22.20;74.10;;;;;;4995732;28;1057;-68
2022/07/26 07:46:19;;;;;;;;;;;22.20;74.10;;;;;;5013294;28;1960;-68
2022/07/26 07:48:45;;;;;;;;;;;22.20;74.10;;;;;;5013484;28;879;-68
2022/07/26 07:51:10;;;;;;;;;;;22.20;74.80;;;;;;5013341;28;887;-68
2022/07/26 07:53:35;;;;;;;;;;;22.20;74.10;;;;;;5013285;28;1026;-68
2022/07/26 07:56:01;;;;;;;;;;;22.20;74.00;;;;;;4995445;28;1391;-68
2022/07/26 07:58:26;;;;;;;;;;;22.20;74.00;;;;;;5013358;28;1053;-69
2022/07/26 08:00:52;;;;;;;;;;;22.20;74.00;;;;;;5013346;28;760;-68
2022/07/26 08:03:17;;;;;;;;;;;22.20;74.00;;;;;;5013168;28;887;-67
2022/07/26 08:05:43;;;;;;;;;;;22.20;74.00;;;;;;5011138;22;2068;-71
2022/07/26 08:08:08;;;;;;;;;;;22.20;74.00;;;;;;4955453;28;1413;-70
2022/07/26 08:10:34;;;;;;;;;;;22.20;74.00;;;;;;4949673;28;2030;-70
2022/07/26 08:12:59;;;;;;;;;;;22.20;74.00;;;;;;4960676;28;1209;-71
2022/07/26 08:15:26;;;;;;;;;;;22.20;74.00;;;;;;4976680;28;1292;-70
2022/07/26 08:17:51;;;;;;;;;;;22.20;74.10;;;;;;4976642;28;1221;-72
2022/07/26 08:20:17;;;;;;;;;;;22.20;74.00;;;;;;4967149;28;1160;-72
2022/07/26 08:22:42;;;;;;;;;;;22.20;74.00;;;;;;4960471;28;1247;-72
2022/07/26 08:25:08;;;;;;;;;;;22.20;74.00;;;;;;4960040;28;1970;-72
2022/07/26 08:27:33;;;;;;;;;;;22.20;74.00;;;;;;4944200;28;1223;-71
2022/07/26 08:29:59;;;;;;;;;;;22.20;74.10;;;;;;4960456;28;785;-71
2022/07/26 08:32:24;;;;;;;;;;;22.20;74.00;;;;;;4960241;28;780;-72
2022/07/26 08:34:50;;;;;;;;;;;22.20;74.00;;;;;;4979438;28;812;-71
2022/07/26 08:37:15;;;;;;;;;;;22.20;74.00;;;;;;4960289;28;1281;-71
2022/07/26 08:39:41;;;;;;;;;;;22.20;74.00;;;;;;4960408;28;749;-71
2022/07/26 08:42:13;;;;;;;;;;;22.20;74.00;;;;;;4960193;28;1176;-70
2022/07/26 08:44:43;;;;;;;;;;;22.20;74.00;;;;;;4977414;28;910;-70
2022/07/26 08:47:11;;;;;;;;;;;22.20;74.10;;;;;;4977299;28;1899;-70
2022/07/26 08:49:37;;;;;;;;;;;22.20;74.10;;;;;;4977457;28;796;-71
2022/07/26 08:52:02;;;;;;;;;;;22.20;74.00;;;;;;4977233;28;1069;-71
2022/07/26 08:54:28;;;;;;;;;;;22.20;74.10;;;;;;4977397;28;836;-70
2022/07/26 08:56:53;;;;;;;;;;;22.20;74.10;;;;;;4960218;28;1216;-71
2022/07/26 08:59:19;;;;;;;;;;;22.20;74.10;;;;;;4977509;28;1062;-71
2022/07/26 09:01:53;;;;;;;;;;;22.20;74.80;;;;;;4977391;28;832;-71
2022/07/26 09:04:20;;;;;;;;;;;22.20;74.10;;;;;;4976791;28;804;-71
2022/07/26 09:07:02;;;;;;;;;;;22.20;74.10;;;;;;4959410;28;1907;-71
2022/07/26 09:09:28;;;;;;;;;;;22.20;74.10;;;;;;4977089;28;828;-70
2022/07/26 09:11:54;;;;;;;;;;;22.20;74.10;;;;;;4977022;28;931;-70
2022/07/26 09:14:19;;;;;;;;;;;22.20;74.10;;;;;;4943601;28;796;-72
2022/07/26 09:16:57;;;;;;;;;;;22.20;74.10;;;;;;4977006;28;1201;-70
2022/07/26 09:19:23;;;;;;;;;;;22.20;74.10;;;;;;4959462;28;1192;-70
2022/07/26 09:21:49;;;;;;;;;;;22.20;74.10;;;;;;4959391;28;813;-71
2022/07/26 09:24:30;;;;;;;;;;;22.20;74.10;;;;;;4976459;28;1133;-71
2022/07/26 09:26:55;;;;;;;;;;;22.20;74.10;;;;;;4972211;28;2048;-70
2022/07/26 09:29:21;;;;;;;;;;;22.20;74.10;;;;;;4970075;28;1015;-71
2022/07/26 09:31:46;;;;;;;;;;;22.20;74.10;;;;;;4972825;28;1145;-71
2022/07/26 09:34:12;;;;;;;;;;;22.20;74.10;;;;;;4974770;28;1124;-73
2022/07/26 09:36:50;;;;;;;;;;;22.20;74.10;;;;;;4974450;28;1308;-72
2022/07/26 09:39:15;;;;;;;;;;;22.20;74.10;;;;;;4975560;28;817;-73
2022/07/26 09:41:41;;;;;;;;;;;22.10;74.00;;;;;;4976840;28;875;-72
2022/07/26 09:44:18;;;;;;;;;;;22.20;74.10;;;;;;4975009;28;848;-71
2022/07/26 09:46:55;;;;;;;;;;;22.20;74.10;;;;;;4975300;28;1965;-73
2022/07/26 09:49:20;;;;;;;;;;;22.20;74.10;;;;;;4975838;28;868;-73
2022/07/26 09:51:46;;;;;;;;;;;22.20;74.10;;;;;;4959975;28;1176;-73
2022/07/26 09:54:30;;;;;;;;;;;22.20;74.10;;;;;;4976427;28;916;-73
2022/07/26 09:56:56;;;;;;;;;;;22.20;74.10;;;;;;4976324;28;1297;-73
2022/07/26 09:59:22;;;;;;;;;;;22.20;74.10;;;;;;4974952;28;1070;-73
2022/07/26 10:01:48;;;;;;;;;;;22.20;74.10;;;;;;4975010;28;888;-73
2022/07/26 10:04:13;;;;;;;;;;;22.20;74.10;;;;;;4974730;28;1374;-73
2022/07/26 10:06:39;;;;;;;;;;;22.20;74.10;;;;;;4975863;28;1959;-74
2022/07/26 10:09:04;;;;;;;;;;;22.10;74.00;;;;;;4974608;28;1169;-73
2022/07/26 10:11:50;;;;;;;;;;;22.20;74.10;;;;;;4958525;28;1031;-72
2022/07/26 10:14:35;;;;;;;;;;;22.20;74.10;;;;;;4968370;28;1398;-73
2022/07/26 10:17:19;;;;;;;;;;;22.20;74.10;;;;;;4975835;28;1172;-72
2022/07/26 10:19:44;;;;;;;;;;;22.20;74.10;;;;;;4976037;28;1279;-72
2022/07/26 10:22:22;;;;;;;;;;;22.20;74.10;;;;;;4958889;28;713;-73
2022/07/26 10:24:48;;;;;;;;;;;22.20;74.10;;;;;;4975470;28;1129;-72
2022/07/26 10:27:32;;;;;;;;;;;22.20;74.10;;;;;;4942231;28;1962;-72
2022/07/26 10:30:30;;;;;;;;;;;22.20;74.10;;;;;;4958213;28;1178;-72
2022/07/26 10:32:58;;;;;;;;;;;22.20;74.10;;;;;;4925823;28;1359;-72
2022/07/26 10:35:33;;;;;;;;;;;22.20;74.10;;;;;;4975417;28;832;-73
2022/07/26 10:38:02;;;;;;;;;;;22.20;74.10;;;;;;4958747;28;1300;-72
2022/07/26 10:40:31;;;;;;;;;;;22.20;74.10;;;;;;4942168;28;1203;-72
2022/07/26 10:43:06;;;;;;;;;;;22.20;74.10;;;;;;4958516;28;927;-72
2022/07/26 10:45:31;;;;;;;;;;;22.20;74.10;;;;;;4975066;28;1902;-72
2022/07/26 10:48:32;;;;;;;;;;;22.20;74.10;;;;;;4957940;28;1223;-71
2022/07/26 10:50:58;;;;;;;;;;;22.20;74.10;;;;;;4915614;29;1413;-72
2022/07/26 10:53:24;;;;;;;;;;;22.20;74.10;;;;;;4962646;28;1127;-69
2022/07/26 10:55:53;;;;;;;;;;;22.20;74.10;;;;;;4975044;28;1151;-73
2022/07/26 10:58:19;;;;;;;;;;;22.20;74.10;;;;;;4960395;28;2172;-73
2022/07/26 11:00:56;;;;;;;;;;;22.20;74.10;;;;;;4965032;28;2008;-71
2022/07/26 11:03:22;;;;;;;;;;;22.20;74.10;;;;;;4965303;28;1976;-73
2022/07/26 11:05:47;;;;;;;;;;;22.20;74.10;;;;;;4956967;28;2011;-68
2022/07/26 11:08:13;;;;;;;;;;;22.20;74.10;;;;;;4957975;28;1861;-71
2022/07/26 11:10:42;;;;;;;;;;;22.20;74.10;;;;;;4965519;28;1291;-70
2022/07/26 11:13:11;;;;;;;;;;;22.20;74.10;;;;;;4965812;28;1427;-72
2022/07/26 11:15:37;;;;;;;;;;;22.20;74.10;;;;;;4974542;28;1198;-71
2022/07/26 11:18:12;;;;;;;;;;;22.20;74.10;;;;;;4973369;28;1145;-70
2022/07/26 11:20:38;;;;;;;;;;;22.20;74.10;;;;;;4961128;28;1215;-71
2022/07/26 11:23:03;;;;;;;;;;;22.20;74.10;;;;;;4957237;28;826;-70
2022/07/26 11:25:29;;;;;;;;;;;22.20;74.10;;;;;;4956992;28;1919;-71
2022/07/26 11:28:03;;;;;;;;;;;22.20;74.10;;;;;;4974557;28;1218;-70
2022/07/26 11:30:29;;;;;;;;;;;22.20;74.10;;;;;;4974573;28;871;-71
2022/07/26 11:32:54;;;;;;;;;;;22.20;74.10;;;;;;4974469;28;855;-73
2022/07/26 11:35:20;;;;;;;;;;;22.20;74.10;;;;;;4941117;28;1404;-72
2022/07/26 11:37:55;;;;;;;;;;;22.20;74.10;;;;;;4957075;28;1380;-72
2022/07/26 11:40:39;;;;;;;;;;;22.20;74.10;;;;;;4957373;28;883;-71
2022/07/26 11:43:05;;;;;;;;;;;22.20;74.10;;;;;;4975236;28;824;-71
2022/07/26 11:45:30;;;;;;;;;;;22.20;74.10;;;;;;4956380;28;1974;-72
2022/07/26 11:47:57;;;;;;;;;;;22.20;74.10;;;;;;4940850;28;1279;-70
2022/07/26 11:50:22;;;;;;;;;;;22.20;74.10;;;;;;4974460;28;895;-71
2022/07/26 11:52:48;;;;;;;;;;;22.20;74.10;;;;;;4940658;28;1169;-70
2022/07/26 11:55:13;;;;;;;;;;;22.20;74.10;;;;;;4956707;28;878;-71
2022/07/26 11:57:39;;;;;;;;;;;22.20;74.10;;;;;;4956857;28;1292;-71
2022/07/26 12:00:05;;;;;;;;;;;22.20;74.10;;;;;;4956916;28;1081;-72
2022/07/26 12:02:30;;;;;;;;;;;22.20;74.10;;;;;;4957068;28;1157;-69
2022/07/26 12:05:12;;;;;;;;;;;22.20;74.10;;;;;;4974029;28;1910;-70
2022/07/26 12:07:37;;;;;;;;;;;22.20;74.10;;;;;;4940618;28;1577;-70
2022/07/26 12:10:03;;;;;;;;;;;22.20;74.10;;;;;;4956727;28;852;-70
2022/07/26 12:12:30;;;;;;;;;;;22.20;74.10;;;;;;4956797;28;1320;-71
2022/07/26 12:14:56;;;;;;;;;;;22.20;74.10;;;;;;4956489;28;1176;-73
2022/07/26 12:17:22;;;;;;;;;;;22.20;74.10;;;;;;4952521;28;1711;-69
2022/07/26 12:19:47;;;;;;;;;;;22.20;74.10;;;;;;4956621;28;1454;-71
2022/07/26 12:22:13;;;;;;;;;;;22.20;74.10;;;;;;4940679;28;1323;-71
2022/07/26 12:24:39;;;;;;;;;;;22.20;74.10;;;;;;4955885;28;1218;-72
2022/07/26 12:27:14;;;;;;;;;;;22.20;74.10;;;;;;4973530;28;1902;-71
2022/07/26 12:29:43;;;;;;;;;;;22.20;74.10;;;;;;4952900;28;2169;-73
2022/07/26 12:32:10;;;;;;;;;;;22.20;74.10;;;;;;4940158;28;1786;-71
2022/07/26 12:34:35;;;;;;;;;;;22.20;74.10;;;;;;4937480;28;1567;-71
2022/07/26 12:37:08;;;;;;;;;;;22.20;74.10;;;;;;4964163;28;1367;-72
2022/07/26 12:39:33;;;;;;;;;;;22.20;74.10;;;;;;4953583;28;1201;-73
2022/07/26 12:41:59;;;;;;;;;;;22.20;74.10;;;;;;4956155;28;1141;-71
2022/07/26 12:44:24;;;;;;;;;;;22.20;74.20;;;;;;4973467;28;1223;-69
2022/07/26 12:46:50;;;;;;;;;;;22.20;74.20;;;;;;4956208;28;1891;-70
2022/07/26 12:49:15;;;;;;;;;;;22.20;74.10;;;;;;4940433;28;1229;-72
2022/07/26 12:51:41;;;;;;;;;;;22.20;74.10;;;;;;4973491;28;784;-72
2022/07/26 12:54:07;;;;;;;;;;;22.20;74.10;;;;;;4956380;28;785;-71
2022/07/26 12:56:32;;;;;;;;;;;22.20;74.10;;;;;;4957270;28;1314;-71
2022/07/26 12:59:00;;;;;;;;;;;22.20;74.10;;;;;;4959953;28;813;-69
2022/07/26 13:01:27;;;;;;;;;;;22.20;74.10;;;;;;4944281;28;1193;-71
2022/07/26 13:03:53;;;;;;;;;;;22.20;74.10;;;;;;4943546;28;1178;-70
2022/07/26 13:06:18;;;;;;;;;;;22.20;74.20;;;;;;4943429;28;1952;-71
2022/07/26 13:08:44;;;;;;;;;;;22.20;74.20;;;;;;4943677;28;1260;-70
2022/07/26 13:11:09;;;;;;;;;;;22.20;74.20;;;;;;4959702;28;1216;-69
2022/07/26 13:13:35;;;;;;;;;;;22.20;74.20;;;;;;4976830;28;1070;-71
2022/07/26 13:16:00;;;;;;;;;;;22.20;74.20;;;;;;4943427;28;1291;-71
2022/07/26 13:18:26;;;;;;;;;;;22.20;74.20;;;;;;4959549;28;840;-70
2022/07/26 13:20:51;;;;;;;;;;;22.20;74.20;;;;;;4959313;28;1318;-70
2022/07/26 13:23:16;;;;;;;;;;;22.20;74.20;;;;;;4959631;28;872;-70
2022/07/26 13:25:42;;;;;;;;;;;22.20;74.20;;;;;;4943136;28;1898;-72
2022/07/26 13:28:08;;;;;;;;;;;22.20;74.20;;;;;;4959483;28;1454;-71
2022/07/26 13:30:34;;;;;;;;;;;22.20;74.20;;;;;;4943497;28;1235;-70
2022/07/26 13:33:00;;;;;;;;;;;22.20;74.20;;;;;;4959746;28;825;-71
2022/07/26 13:35:25;;;;;;;;;;;22.20;74.20;;;;;;4959248;28;1223;-69
2022/07/26 13:37:51;;;;;;;;;;;22.20;74.20;;;;;;4970422;28;1440;-69
2022/07/26 13:40:17;;;;;;;;;;;22.20;74.20;;;;;;4976359;28;1136;-69
2022/07/26 13:42:43;;;;;;;;;;;22.20;74.20;;;;;;4957841;28;893;-69
2022/07/26 13:45:09;;;;;;;;;;;22.20;74.20;;;;;;4976195;28;1906;-70
2022/07/26 13:47:34;;;;;;;;;;;22.20;74.20;;;;;;4976268;28;1171;-69
2022/07/26 13:49:59;;;;;;;;;;;22.20;74.20;;;;;;4959058;28;947;-67
2022/07/26 13:52:25;;;;;;;;;;;22.20;74.20;;;;;;4976157;28;967;-66
2022/07/26 13:54:50;;;;;;;;;;;22.20;74.20;;;;;;4958818;28;1015;-68
2022/07/26 13:57:16;;;;;;;;;;;22.20;74.20;;;;;;4976059;28;1303;-69
2022/07/26 13:59:41;;;;;;;;;;;22.20;74.20;;;;;;4976126;28;820;-69
2022/07/26 14:02:07;;;;;;;;;;;22.20;74.20;;;;;;4976090;28;879;-70
2022/07/26 14:04:32;;;;;;;;;;;22.20;74.20;;;;;;4975627;28;795;-71
2022/07/26 14:06:58;;;;;;;;;;;22.20;74.20;;;;;;4996162;23;1891;-67
2022/07/26 14:09:23;;;;;;;;;;;22.20;74.20;;;;;;5033538;28;1040;-68
2022/07/26 14:11:49;;;;;;;;;;;22.20;74.20;;;;;;5050129;28;874;-68
2022/07/26 14:14:14;;;;;;;;;;;22.20;74.20;;;;;;5034347;28;894;-67
2022/07/26 14:16:40;;;;;;;;;;;22.20;74.20;;;;;;5017257;28;1210;-68
2022/07/26 14:19:05;;;;;;;;;;;22.20;74.20;;;;;;5034324;28;1123;-68
2022/07/26 14:21:31;;;;;;;;;;;22.20;74.20;;;;;;5034561;28;921;-70
2022/07/26 14:23:56;;;;;;;;;;;22.20;74.20;;;;;;5034282;28;945;-70
2022/07/26 14:26:22;;;;;;;;;;;22.20;74.20;;;;;;5017373;28;1914;-72
2022/07/26 14:28:47;;;;;;;;;;;22.20;74.20;;;;;;5033193;28;831;-73
2022/07/26 14:31:13;;;;;;;;;;;22.20;74.20;;;;;;5033222;28;843;-72
2022/07/26 14:33:38;;;;;;;;;;;22.20;74.20;;;;;;5032754;28;870;-71